sensor_id;sensor_type;location;lat;lon;timestamp;P1;durP1;ratioP1;P2;durP2;ratioP2
33453;SDS011;39400;49.744;7.012;2022-11-15T00:01:35;12.43;;;9.18;;
33453;SDS011;39400;49.744;7.012;2022-11-15T00:04:38;13.55;;;10.23;;
33453;SDS011;39400;49.744;7.012;2022-11-15T00:07:41;13.98;;;11.27;;
33453;SDS011;39400;49.744;7.012;2022-11-15T00:10:54;18.00;;;12.25;;
33453;SDS011;39400;49.744;7.012;2022-11-15T00:14:06;13.90;;;10.85;;
33453;SDS011;39400;49.744;7.012;2022-11-15T00:17:09;11.40;;;9.45;;
33453;SDS011;39400;49.744;7.012;2022-11-15T00:20:11;11.82;;;8.80;;
33453;SDS011;39400;49.744;7.012;2022-11-15T00:23:14;10.90;;;8.35;;
33453;SDS011;39400;49.744;7.012;2022-11-15T00:26:17;12.68;;;8.95;;
33453;SDS011;39400;49.744;7.012;2022-11-15T00:29:20;12.38;;;8.98;;
33453;SDS011;39400;49.744;7.012;2022-11-15T00:32:23;12.00;;;8.55;;
33453;SDS011;39400;49.744;7.012;2022-11-15T00:35:26;12.65;;;7.80;;
33453;SDS011;39400;49.744;7.012;2022-11-15T00:38:32;10.73;;;7.47;;
33453;SDS011;39400;49.744;7.012;2022-11-15T00:41:36;10.85;;;8.23;;
33453;SDS011;39400;49.744;7.012;2022-11-15T00:44:39;8.88;;;6.60;;
33453;SDS011;39400;49.744;7.012;2022-11-15T00:47:45;18.42;;;8.90;;
33453;SDS011;39400;49.744;7.012;2022-11-15T00:50:48;8.45;;;5.85;;
33453;SDS011;39400;49.744;7.012;2022-11-15T00:53:51;8.60;;;5.90;;
33453;SDS011;39400;49.744;7.012;2022-11-15T00:56:54;10.35;;;6.60;;
33453;SDS011;39400;49.744;7.012;2022-11-15T00:59:57;8.32;;;5.53;;
33453;SDS011;39400;49.744;7.012;2022-11-15T01:03:00;7.03;;;5.45;;
33453;SDS011;39400;49.744;7.012;2022-11-15T01:06:03;9.75;;;6.78;;
33453;SDS011;39400;49.744;7.012;2022-11-15T01:09:06;8.90;;;6.35;;
33453;SDS011;39400;49.744;7.012;2022-11-15T01:12:09;7.55;;;5.40;;
33453;SDS011;39400;49.744;7.012;2022-11-15T01:15:12;11.43;;;7.38;;
33453;SDS011;39400;49.744;7.012;2022-11-15T01:18:15;7.97;;;5.82;;
33453;SDS011;39400;49.744;7.012;2022-11-15T01:21:18;10.32;;;6.95;;
33453;SDS011;39400;49.744;7.012;2022-11-15T01:24:21;10.40;;;6.72;;
33453;SDS011;39400;49.744;7.012;2022-11-15T01:27:24;11.00;;;7.45;;
33453;SDS011;39400;49.744;7.012;2022-11-15T01:30:27;9.93;;;7.25;;
33453;SDS011;39400;49.744;7.012;2022-11-15T01:33:30;12.05;;;8.05;;
33453;SDS011;39400;49.744;7.012;2022-11-15T01:36:33;12.40;;;7.82;;
33453;SDS011;39400;49.744;7.012;2022-11-15T01:39:36;10.30;;;8.05;;
33453;SDS011;39400;49.744;7.012;2022-11-15T01:42:39;11.68;;;7.85;;
33453;SDS011;39400;49.744;7.012;2022-11-15T01:45:41;10.07;;;7.95;;
33453;SDS011;39400;49.744;7.012;2022-11-15T01:48:44;14.35;;;6.97;;
33453;SDS011;39400;49.744;7.012;2022-11-15T01:51:47;8.23;;;6.80;;
33453;SDS011;39400;49.744;7.012;2022-11-15T01:54:52;8.43;;;6.40;;
33453;SDS011;39400;49.744;7.012;2022-11-15T01:57:59;10.32;;;6.80;;
33453;SDS011;39400;49.744;7.012;2022-11-15T02:01:07;8.60;;;7.05;;
33453;SDS011;39400;49.744;7.012;2022-11-15T02:07:18;11.30;;;6.15;;
33453;SDS011;39400;49.744;7.012;2022-11-15T02:10:24;10.63;;;7.10;;
33453;SDS011;39400;49.744;7.012;2022-11-15T02:13:27;8.55;;;6.45;;
33453;SDS011;39400;49.744;7.012;2022-11-15T02:19:59;10.55;;;5.47;;
33453;SDS011;39400;49.744;7.012;2022-11-15T02:23:41;9.88;;;6.28;;
33453;SDS011;39400;49.744;7.012;2022-11-15T02:37:15;7.35;;;5.30;;
33453;SDS011;39400;49.744;7.012;2022-11-15T02:43:33;16.85;;;5.82;;
33453;SDS011;39400;49.744;7.012;2022-11-15T02:46:45;9.13;;;4.68;;
33453;SDS011;39400;49.744;7.012;2022-11-15T02:49:53;6.78;;;4.40;;
33453;SDS011;39400;49.744;7.012;2022-11-15T02:52:59;7.00;;;4.93;;
33453;SDS011;39400;49.744;7.012;2022-11-15T02:56:02;8.38;;;5.00;;
33453;SDS011;39400;49.744;7.012;2022-11-15T03:09:11;9.05;;;5.55;;
33453;SDS011;39400;49.744;7.012;2022-11-15T03:12:27;10.75;;;5.18;;
33453;SDS011;39400;49.744;7.012;2022-11-15T03:15:37;9.02;;;5.95;;
33453;SDS011;39400;49.744;7.012;2022-11-15T03:18:45;6.75;;;4.68;;
33453;SDS011;39400;49.744;7.012;2022-11-15T03:21:52;11.30;;;6.25;;
33453;SDS011;39400;49.744;7.012;2022-11-15T03:24:58;7.82;;;5.72;;
33453;SDS011;39400;49.744;7.012;2022-11-15T03:28:04;9.43;;;6.72;;
33453;SDS011;39400;49.744;7.012;2022-11-15T03:31:08;8.85;;;6.80;;
33453;SDS011;39400;49.744;7.012;2022-11-15T03:37:29;12.68;;;7.07;;
33453;SDS011;39400;49.744;7.012;2022-11-15T03:40:39;7.82;;;6.30;;
33453;SDS011;39400;49.744;7.012;2022-11-15T03:43:49;8.95;;;5.88;;
33453;SDS011;39400;49.744;7.012;2022-11-15T03:47:17;9.93;;;5.50;;
33453;SDS011;39400;49.744;7.012;2022-11-15T03:50:26;9.23;;;5.50;;
33453;SDS011;39400;49.744;7.012;2022-11-15T03:53:29;8.10;;;6.35;;
33453;SDS011;39400;49.744;7.012;2022-11-15T03:56:32;8.73;;;5.78;;
33453;SDS011;39400;49.744;7.012;2022-11-15T03:59:35;9.10;;;6.28;;
33453;SDS011;39400;49.744;7.012;2022-11-15T04:02:38;8.55;;;5.45;;
33453;SDS011;39400;49.744;7.012;2022-11-15T04:05:40;8.98;;;6.25;;
33453;SDS011;39400;49.744;7.012;2022-11-15T04:08:44;8.68;;;5.72;;
33453;SDS011;39400;49.744;7.012;2022-11-15T04:11:46;10.95;;;6.93;;
33453;SDS011;39400;49.744;7.012;2022-11-15T04:14:49;7.07;;;5.53;;
33453;SDS011;39400;49.744;7.012;2022-11-15T04:17:53;7.47;;;5.43;;
33453;SDS011;39400;49.744;7.012;2022-11-15T04:20:57;11.43;;;6.40;;
33453;SDS011;39400;49.744;7.012;2022-11-15T04:24:00;7.60;;;5.47;;
33453;SDS011;39400;49.744;7.012;2022-11-15T04:27:03;8.43;;;6.00;;
33453;SDS011;39400;49.744;7.012;2022-11-15T04:30:06;8.80;;;6.78;;
33453;SDS011;39400;49.744;7.012;2022-11-15T04:33:09;8.13;;;6.68;;
33453;SDS011;39400;49.744;7.012;2022-11-15T04:36:11;8.27;;;6.22;;
33453;SDS011;39400;49.744;7.012;2022-11-15T04:39:14;9.40;;;6.18;;
33453;SDS011;39400;49.744;7.012;2022-11-15T04:42:17;6.88;;;5.68;;
33453;SDS011;39400;49.744;7.012;2022-11-15T04:45:20;7.25;;;4.90;;
33453;SDS011;39400;49.744;7.012;2022-11-15T04:48:23;10.13;;;6.25;;
33453;SDS011;39400;49.744;7.012;2022-11-15T04:51:26;10.20;;;4.95;;
33453;SDS011;39400;49.744;7.012;2022-11-15T04:54:29;7.35;;;4.95;;
33453;SDS011;39400;49.744;7.012;2022-11-15T04:57:31;10.73;;;5.22;;
33453;SDS011;39400;49.744;7.012;2022-11-15T05:00:35;10.75;;;6.45;;
33453;SDS011;39400;49.744;7.012;2022-11-15T05:03:37;9.15;;;6.43;;
33453;SDS011;39400;49.744;7.012;2022-11-15T05:06:40;8.90;;;7.00;;
33453;SDS011;39400;49.744;7.012;2022-11-15T05:09:43;10.40;;;7.88;;
33453;SDS011;39400;49.744;7.012;2022-11-15T05:12:47;9.00;;;6.65;;
33453;SDS011;39400;49.744;7.012;2022-11-15T05:15:49;11.60;;;6.30;;
33453;SDS011;39400;49.744;7.012;2022-11-15T05:18:53;13.27;;;7.25;;
33453;SDS011;39400;49.744;7.012;2022-11-15T05:21:56;9.45;;;6.40;;
33453;SDS011;39400;49.744;7.012;2022-11-15T05:24:59;8.32;;;6.30;;
33453;SDS011;39400;49.744;7.012;2022-11-15T05:28:02;6.60;;;5.15;;
33453;SDS011;39400;49.744;7.012;2022-11-15T05:31:06;7.57;;;4.68;;
33453;SDS011;39400;49.744;7.012;2022-11-15T05:34:13;6.07;;;4.07;;
33453;SDS011;39400;49.744;7.012;2022-11-15T05:37:16;5.05;;;3.40;;
33453;SDS011;39400;49.744;7.012;2022-11-15T05:40:20;7.65;;;3.90;;
33453;SDS011;39400;49.744;7.012;2022-11-15T05:43:23;7.90;;;4.97;;
33453;SDS011;39400;49.744;7.012;2022-11-15T05:46:26;8.13;;;4.38;;
33453;SDS011;39400;49.744;7.012;2022-11-15T05:49:30;6.75;;;5.40;;
33453;SDS011;39400;49.744;7.012;2022-11-15T05:52:37;9.60;;;5.95;;
33453;SDS011;39400;49.744;7.012;2022-11-15T05:55:40;5.80;;;4.35;;
33453;SDS011;39400;49.744;7.012;2022-11-15T05:58:43;7.13;;;4.07;;
33453;SDS011;39400;49.744;7.012;2022-11-15T06:01:46;7.47;;;4.43;;
33453;SDS011;39400;49.744;7.012;2022-11-15T06:04:49;9.65;;;4.72;;
33453;SDS011;39400;49.744;7.012;2022-11-15T06:07:52;6.43;;;3.95;;
33453;SDS011;39400;49.744;7.012;2022-11-15T06:10:55;7.10;;;4.25;;
33453;SDS011;39400;49.744;7.012;2022-11-15T06:13:58;7.50;;;3.88;;
33453;SDS011;39400;49.744;7.012;2022-11-15T06:17:00;8.13;;;4.43;;
33453;SDS011;39400;49.744;7.012;2022-11-15T06:20:03;6.95;;;4.93;;
33453;SDS011;39400;49.744;7.012;2022-11-15T06:23:07;13.77;;;4.88;;
33453;SDS011;39400;49.744;7.012;2022-11-15T06:26:10;6.13;;;4.28;;
33453;SDS011;39400;49.744;7.012;2022-11-15T06:29:12;7.97;;;3.45;;
33453;SDS011;39400;49.744;7.012;2022-11-15T06:32:15;5.65;;;3.20;;
33453;SDS011;39400;49.744;7.012;2022-11-15T06:35:18;5.32;;;3.13;;
33453;SDS011;39400;49.744;7.012;2022-11-15T06:38:21;5.22;;;3.40;;
33453;SDS011;39400;49.744;7.012;2022-11-15T06:41:24;6.97;;;3.50;;
33453;SDS011;39400;49.744;7.012;2022-11-15T06:44:27;6.13;;;3.83;;
33453;SDS011;39400;49.744;7.012;2022-11-15T06:47:29;4.22;;;2.95;;
33453;SDS011;39400;49.744;7.012;2022-11-15T06:50:32;5.18;;;2.97;;
33453;SDS011;39400;49.744;7.012;2022-11-15T06:53:35;5.35;;;3.63;;
33453;SDS011;39400;49.744;7.012;2022-11-15T06:56:38;7.60;;;3.08;;
33453;SDS011;39400;49.744;7.012;2022-11-15T06:59:41;5.18;;;3.22;;
33453;SDS011;39400;49.744;7.012;2022-11-15T07:02:44;8.75;;;2.70;;
33453;SDS011;39400;49.744;7.012;2022-11-15T07:05:53;4.70;;;2.67;;
33453;SDS011;39400;49.744;7.012;2022-11-15T07:08:57;3.42;;;2.40;;
33453;SDS011;39400;49.744;7.012;2022-11-15T07:12:00;5.50;;;3.55;;
33453;SDS011;39400;49.744;7.012;2022-11-15T07:15:03;2.47;;;1.90;;
33453;SDS011;39400;49.744;7.012;2022-11-15T07:18:06;3.30;;;2.28;;
33453;SDS011;39400;49.744;7.012;2022-11-15T07:21:10;4.28;;;2.15;;
33453;SDS011;39400;49.744;7.012;2022-11-15T07:24:13;6.00;;;2.13;;
33453;SDS011;39400;49.744;7.012;2022-11-15T07:27:16;4.53;;;1.95;;
33453;SDS011;39400;49.744;7.012;2022-11-15T07:30:19;4.45;;;2.63;;
33453;SDS011;39400;49.744;7.012;2022-11-15T07:33:22;3.25;;;2.05;;
33453;SDS011;39400;49.744;7.012;2022-11-15T07:36:24;3.88;;;2.72;;
33453;SDS011;39400;49.744;7.012;2022-11-15T07:39:27;3.97;;;2.17;;
33453;SDS011;39400;49.744;7.012;2022-11-15T07:42:31;6.10;;;2.08;;
33453;SDS011;39400;49.744;7.012;2022-11-15T07:45:34;3.38;;;2.10;;
33453;SDS011;39400;49.744;7.012;2022-11-15T07:49:41;4.65;;;2.15;;
33453;SDS011;39400;49.744;7.012;2022-11-15T07:52:44;5.13;;;2.15;;
33453;SDS011;39400;49.744;7.012;2022-11-15T07:55:48;9.13;;;2.88;;
33453;SDS011;39400;49.744;7.012;2022-11-15T07:58:50;5.43;;;3.00;;
33453;SDS011;39400;49.744;7.012;2022-11-15T08:03:49;4.65;;;3.75;;
33453;SDS011;39400;49.744;7.012;2022-11-15T08:06:52;4.57;;;3.33;;
33453;SDS011;39400;49.744;7.012;2022-11-15T08:09:55;5.60;;;3.08;;
33453;SDS011;39400;49.744;7.012;2022-11-15T08:16:02;8.07;;;5.82;;
33453;SDS011;39400;49.744;7.012;2022-11-15T08:19:05;10.52;;;6.40;;
33453;SDS011;39400;49.744;7.012;2022-11-15T08:22:08;11.02;;;7.57;;
33453;SDS011;39400;49.744;7.012;2022-11-15T08:25:11;11.60;;;7.30;;
33453;SDS011;39400;49.744;7.012;2022-11-15T08:28:15;10.93;;;7.07;;
33453;SDS011;39400;49.744;7.012;2022-11-15T08:31:18;13.27;;;7.78;;
33453;SDS011;39400;49.744;7.012;2022-11-15T08:34:21;17.73;;;11.45;;
33453;SDS011;39400;49.744;7.012;2022-11-15T08:37:25;13.60;;;9.30;;
33453;SDS011;39400;49.744;7.012;2022-11-15T08:40:28;12.57;;;8.45;;
33453;SDS011;39400;49.744;7.012;2022-11-15T08:43:30;10.80;;;6.65;;
33453;SDS011;39400;49.744;7.012;2022-11-15T08:46:33;7.93;;;5.78;;
33453;SDS011;39400;49.744;7.012;2022-11-15T08:49:36;10.05;;;6.32;;
33453;SDS011;39400;49.744;7.012;2022-11-15T08:52:39;7.45;;;5.57;;
33453;SDS011;39400;49.744;7.012;2022-11-15T08:55:42;10.10;;;6.35;;
33453;SDS011;39400;49.744;7.012;2022-11-15T08:58:45;10.75;;;6.57;;
33453;SDS011;39400;49.744;7.012;2022-11-15T09:01:48;9.07;;;5.68;;
33453;SDS011;39400;49.744;7.012;2022-11-15T09:04:51;9.73;;;7.03;;
33453;SDS011;39400;49.744;7.012;2022-11-15T09:07:54;8.85;;;5.85;;
33453;SDS011;39400;49.744;7.012;2022-11-15T09:10:57;8.82;;;6.25;;
33453;SDS011;39400;49.744;7.012;2022-11-15T09:14:00;7.28;;;5.00;;
33453;SDS011;39400;49.744;7.012;2022-11-15T09:17:03;9.93;;;5.82;;
33453;SDS011;39400;49.744;7.012;2022-11-15T09:20:06;8.32;;;5.85;;
33453;SDS011;39400;49.744;7.012;2022-11-15T09:23:09;8.75;;;5.28;;
33453;SDS011;39400;49.744;7.012;2022-11-15T09:26:12;7.50;;;4.20;;
33453;SDS011;39400;49.744;7.012;2022-11-15T09:29:15;4.30;;;3.00;;
33453;SDS011;39400;49.744;7.012;2022-11-15T09:32:19;4.43;;;2.78;;
33453;SDS011;39400;49.744;7.012;2022-11-15T09:35:22;5.53;;;2.47;;
33453;SDS011;39400;49.744;7.012;2022-11-15T09:38:25;4.03;;;2.15;;
33453;SDS011;39400;49.744;7.012;2022-11-15T09:41:47;6.07;;;2.60;;
33453;SDS011;39400;49.744;7.012;2022-11-15T09:45:10;6.13;;;2.35;;
33453;SDS011;39400;49.744;7.012;2022-11-15T09:48:25;3.55;;;2.40;;
33453;SDS011;39400;49.744;7.012;2022-11-15T09:51:41;4.75;;;2.55;;
33453;SDS011;39400;49.744;7.012;2022-11-15T09:54:30;3.53;;;2.40;;
33453;SDS011;39400;49.744;7.012;2022-11-15T09:57:27;5.30;;;2.72;;
33453;SDS011;39400;49.744;7.012;2022-11-15T10:00:17;3.97;;;2.75;;
33453;SDS011;39400;49.744;7.012;2022-11-15T10:06:24;2.95;;;2.10;;
33453;SDS011;39400;49.744;7.012;2022-11-15T10:09:21;3.38;;;2.03;;
33453;SDS011;39400;49.744;7.012;2022-11-15T10:12:10;3.13;;;1.90;;
33453;SDS011;39400;49.744;7.012;2022-11-15T10:15:11;3.92;;;2.60;;
33453;SDS011;39400;49.744;7.012;2022-11-15T10:18:06;4.70;;;2.88;;
33453;SDS011;39400;49.744;7.012;2022-11-15T10:20:55;3.92;;;2.30;;
33453;SDS011;39400;49.744;7.012;2022-11-15T10:23:42;3.08;;;1.90;;
33453;SDS011;39400;49.744;7.012;2022-11-15T10:26:26;2.40;;;1.65;;
33453;SDS011;39400;49.744;7.012;2022-11-15T10:29:11;2.72;;;1.42;;
33453;SDS011;39400;49.744;7.012;2022-11-15T10:31:55;4.20;;;2.00;;
33453;SDS011;39400;49.744;7.012;2022-11-15T10:34:38;3.38;;;1.60;;
33453;SDS011;39400;49.744;7.012;2022-11-15T10:37:27;3.47;;;1.52;;
33453;SDS011;39400;49.744;7.012;2022-11-15T10:40:20;5.15;;;2.45;;
33453;SDS011;39400;49.744;7.012;2022-11-15T10:43:16;5.07;;;1.98;;
33453;SDS011;39400;49.744;7.012;2022-11-15T10:46:16;3.83;;;1.73;;
33453;SDS011;39400;49.744;7.012;2022-11-15T10:49:14;3.13;;;1.15;;
33453;SDS011;39400;49.744;7.012;2022-11-15T10:52:13;2.95;;;1.27;;
33453;SDS011;39400;49.744;7.012;2022-11-15T10:57:51;3.63;;;1.55;;
33453;SDS011;39400;49.744;7.012;2022-11-15T11:00:37;4.40;;;1.10;;
33453;SDS011;39400;49.744;7.012;2022-11-15T11:03:27;3.65;;;1.27;;
33453;SDS011;39400;49.744;7.012;2022-11-15T11:06:17;2.53;;;1.52;;
33453;SDS011;39400;49.744;7.012;2022-11-15T11:09:20;5.60;;;1.42;;
33453;SDS011;39400;49.744;7.012;2022-11-15T11:12:19;3.10;;;1.10;;
33453;SDS011;39400;49.744;7.012;2022-11-15T11:15:13;2.38;;;1.15;;
33453;SDS011;39400;49.744;7.012;2022-11-15T11:18:04;2.22;;;0.90;;
33453;SDS011;39400;49.744;7.012;2022-11-15T11:20:55;1.98;;;1.17;;
33453;SDS011;39400;49.744;7.012;2022-11-15T11:23:50;2.45;;;1.30;;
33453;SDS011;39400;49.744;7.012;2022-11-15T11:26:42;3.58;;;1.40;;
33453;SDS011;39400;49.744;7.012;2022-11-15T11:29:44;4.88;;;1.33;;
33453;SDS011;39400;49.744;7.012;2022-11-15T11:32:54;2.50;;;1.20;;
33453;SDS011;39400;49.744;7.012;2022-11-15T11:38:57;2.22;;;1.33;;
33453;SDS011;39400;49.744;7.012;2022-11-15T11:41:59;3.08;;;1.52;;
33453;SDS011;39400;49.744;7.012;2022-11-15T11:47:48;1.90;;;0.90;;
33453;SDS011;39400;49.744;7.012;2022-11-15T11:50:37;1.15;;;0.93;;
33453;SDS011;39400;49.744;7.012;2022-11-15T11:53:34;2.20;;;1.23;;
33453;SDS011;39400;49.744;7.012;2022-11-15T11:56:25;3.92;;;1.17;;
33453;SDS011;39400;49.744;7.012;2022-11-15T12:02:25;3.43;;;1.10;;
33453;SDS011;39400;49.744;7.012;2022-11-15T12:05:29;1.55;;;1.00;;
33453;SDS011;39400;49.744;7.012;2022-11-15T12:08:31;3.88;;;1.17;;
33453;SDS011;39400;49.744;7.012;2022-11-15T12:14:29;1.83;;;0.85;;
33453;SDS011;39400;49.744;7.012;2022-11-15T12:17:21;1.48;;;0.90;;
33453;SDS011;39400;49.744;7.012;2022-11-15T12:20:23;2.15;;;0.85;;
33453;SDS011;39400;49.744;7.012;2022-11-15T12:23:12;2.30;;;0.95;;
33453;SDS011;39400;49.744;7.012;2022-11-15T12:26:08;2.60;;;1.30;;
33453;SDS011;39400;49.744;7.012;2022-11-15T12:28:59;0.90;;;0.75;;
33453;SDS011;39400;49.744;7.012;2022-11-15T12:31:48;1.10;;;0.77;;
33453;SDS011;39400;49.744;7.012;2022-11-15T12:34:37;1.52;;;0.93;;
33453;SDS011;39400;49.744;7.012;2022-11-15T12:40:31;2.78;;;1.55;;
33453;SDS011;39400;49.744;7.012;2022-11-15T12:43:39;5.07;;;2.15;;
33453;SDS011;39400;49.744;7.012;2022-11-15T12:52:06;1.15;;;0.98;;
33453;SDS011;39400;49.744;7.012;2022-11-15T12:54:53;4.07;;;1.67;;
33453;SDS011;39400;49.744;7.012;2022-11-15T12:57:41;1.20;;;1.00;;
33453;SDS011;39400;49.744;7.012;2022-11-15T13:03:17;2.40;;;1.15;;
33453;SDS011;39400;49.744;7.012;2022-11-15T13:06:06;2.90;;;1.08;;
33453;SDS011;39400;49.744;7.012;2022-11-15T13:08:51;0.82;;;0.60;;
33453;SDS011;39400;49.744;7.012;2022-11-15T13:11:42;2.33;;;1.00;;
33453;SDS011;39400;49.744;7.012;2022-11-15T13:20:14;2.30;;;1.27;;
33453;SDS011;39400;49.744;7.012;2022-11-15T13:23:10;1.17;;;0.80;;
33453;SDS011;39400;49.744;7.012;2022-11-15T13:28:59;1.95;;;0.80;;
33453;SDS011;39400;49.744;7.012;2022-11-15T13:31:44;0.98;;;0.73;;
33453;SDS011;39400;49.744;7.012;2022-11-15T13:34:32;1.95;;;0.65;;
33453;SDS011;39400;49.744;7.012;2022-11-15T13:40:47;1.75;;;0.85;;
33453;SDS011;39400;49.744;7.012;2022-11-15T13:43:17;1.67;;;0.70;;
33453;SDS011;39400;49.744;7.012;2022-11-15T13:49:02;1.25;;;0.85;;
33453;SDS011;39400;49.744;7.012;2022-11-15T13:51:51;1.48;;;0.88;;
33453;SDS011;39400;49.744;7.012;2022-11-15T13:57:28;0.93;;;0.70;;
33453;SDS011;39400;49.744;7.012;2022-11-15T14:00:25;3.20;;;1.40;;
33453;SDS011;39400;49.744;7.012;2022-11-15T14:06:05;2.70;;;1.80;;
33453;SDS011;39400;49.744;7.012;2022-11-15T14:09:14;8.43;;;1.30;;
33453;SDS011;39400;49.744;7.012;2022-11-15T14:12:21;3.35;;;1.65;;
33453;SDS011;39400;49.744;7.012;2022-11-15T14:21:32;1.63;;;0.93;;
33453;SDS011;39400;49.744;7.012;2022-11-15T14:24:18;1.35;;;0.90;;
33453;SDS011;39400;49.744;7.012;2022-11-15T14:30:03;1.05;;;0.90;;
33453;SDS011;39400;49.744;7.012;2022-11-15T14:32:48;8.30;;;4.60;;
33453;SDS011;39400;49.744;7.012;2022-11-15T14:35:33;1.60;;;1.30;;
33453;SDS011;39400;49.744;7.012;2022-11-15T14:38:21;2.03;;;1.23;;
33453;SDS011;39400;49.744;7.012;2022-11-15T14:41:05;1.83;;;1.30;;
33453;SDS011;39400;49.744;7.012;2022-11-15T14:43:54;5.85;;;2.17;;
33453;SDS011;39400;49.744;7.012;2022-11-15T14:46:38;6.68;;;3.20;;
33453;SDS011;39400;49.744;7.012;2022-11-15T14:49:21;5.05;;;2.72;;
33453;SDS011;39400;49.744;7.012;2022-11-15T14:55:16;9.18;;;2.80;;
33453;SDS011;39400;49.744;7.012;2022-11-15T14:58:04;6.00;;;2.15;;
33453;SDS011;39400;49.744;7.012;2022-11-15T15:00:50;6.85;;;2.42;;
33453;SDS011;39400;49.744;7.012;2022-11-15T15:03:34;5.13;;;3.10;;
33453;SDS011;39400;49.744;7.012;2022-11-15T15:06:18;7.72;;;3.35;;
33453;SDS011;39400;49.744;7.012;2022-11-15T15:09:02;6.82;;;2.47;;
33453;SDS011;39400;49.744;7.012;2022-11-15T15:11:46;5.70;;;2.72;;
33453;SDS011;39400;49.744;7.012;2022-11-15T15:14:30;5.28;;;3.22;;
33453;SDS011;39400;49.744;7.012;2022-11-15T15:17:14;6.47;;;2.88;;
33453;SDS011;39400;49.744;7.012;2022-11-15T15:19:58;6.28;;;2.65;;
33453;SDS011;39400;49.744;7.012;2022-11-15T15:22:43;3.90;;;2.17;;
33453;SDS011;39400;49.744;7.012;2022-11-15T15:25:29;8.23;;;4.65;;
33453;SDS011;39400;49.744;7.012;2022-11-15T15:28:15;3.85;;;2.20;;
33453;SDS011;39400;49.744;7.012;2022-11-15T15:30:58;5.22;;;2.45;;
33453;SDS011;39400;49.744;7.012;2022-11-15T15:33:42;4.28;;;2.53;;
33453;SDS011;39400;49.744;7.012;2022-11-15T15:36:26;3.95;;;1.98;;
33453;SDS011;39400;49.744;7.012;2022-11-15T15:39:10;3.72;;;2.28;;
33453;SDS011;39400;49.744;7.012;2022-11-15T15:41:54;3.45;;;1.90;;
33453;SDS011;39400;49.744;7.012;2022-11-15T15:44:38;5.50;;;3.03;;
33453;SDS011;39400;49.744;7.012;2022-11-15T15:47:22;4.80;;;2.47;;
33453;SDS011;39400;49.744;7.012;2022-11-15T15:50:12;5.47;;;2.35;;
33453;SDS011;39400;49.744;7.012;2022-11-15T15:52:58;3.83;;;1.90;;
33453;SDS011;39400;49.744;7.012;2022-11-15T15:55:44;2.88;;;1.83;;
33453;SDS011;39400;49.744;7.012;2022-11-15T15:58:28;4.57;;;2.50;;
33453;SDS011;39400;49.744;7.012;2022-11-15T16:01:11;2.65;;;1.63;;
33453;SDS011;39400;49.744;7.012;2022-11-15T16:03:55;2.58;;;1.48;;
33453;SDS011;39400;49.744;7.012;2022-11-15T16:06:40;3.50;;;1.95;;
33453;SDS011;39400;49.744;7.012;2022-11-15T16:09:24;22.33;;;11.30;;
33453;SDS011;39400;49.744;7.012;2022-11-15T16:12:08;4.13;;;1.92;;
33453;SDS011;39400;49.744;7.012;2022-11-15T16:14:52;2.20;;;1.67;;
33453;SDS011;39400;49.744;7.012;2022-11-15T16:17:40;5.63;;;1.60;;
33453;SDS011;39400;49.744;7.012;2022-11-15T16:20:30;3.70;;;2.15;;
33453;SDS011;39400;49.744;7.012;2022-11-15T16:23:18;3.65;;;1.63;;
33453;SDS011;39400;49.744;7.012;2022-11-15T16:26:06;8.65;;;2.15;;
33453;SDS011;39400;49.744;7.012;2022-11-15T16:29:01;6.10;;;3.00;;
33453;SDS011;39400;49.744;7.012;2022-11-15T16:31:45;19.20;;;9.82;;
33453;SDS011;39400;49.744;7.012;2022-11-15T16:34:29;7.72;;;5.05;;
33453;SDS011;39400;49.744;7.012;2022-11-15T16:37:23;7.22;;;3.47;;
33453;SDS011;39400;49.744;7.012;2022-11-15T16:40:15;7.80;;;2.85;;
33453;SDS011;39400;49.744;7.012;2022-11-15T16:43:03;4.55;;;2.00;;
33453;SDS011;39400;49.744;7.012;2022-11-15T16:45:48;5.80;;;3.15;;
33453;SDS011;39400;49.744;7.012;2022-11-15T16:48:33;5.22;;;1.92;;
33453;SDS011;39400;49.744;7.012;2022-11-15T16:51:17;8.88;;;3.15;;
33453;SDS011;39400;49.744;7.012;2022-11-15T16:54:01;2.55;;;1.50;;
33453;SDS011;39400;49.744;7.012;2022-11-15T16:56:45;7.97;;;6.03;;
33453;SDS011;39400;49.744;7.012;2022-11-15T16:59:29;4.30;;;3.40;;
33453;SDS011;39400;49.744;7.012;2022-11-15T17:02:13;7.32;;;2.28;;
33453;SDS011;39400;49.744;7.012;2022-11-15T17:04:57;2.85;;;1.95;;
33453;SDS011;39400;49.744;7.012;2022-11-15T17:07:41;2.58;;;1.88;;
33453;SDS011;39400;49.744;7.012;2022-11-15T17:10:25;4.13;;;2.33;;
33453;SDS011;39400;49.744;7.012;2022-11-15T17:13:13;3.17;;;1.77;;
33453;SDS011;39400;49.744;7.012;2022-11-15T17:16:07;3.95;;;2.47;;
33453;SDS011;39400;49.744;7.012;2022-11-15T17:18:53;4.25;;;2.58;;
33453;SDS011;39400;49.744;7.012;2022-11-15T17:21:37;4.20;;;2.15;;
33453;SDS011;39400;49.744;7.012;2022-11-15T17:24:20;4.43;;;2.33;;
33453;SDS011;39400;49.744;7.012;2022-11-15T17:27:04;3.45;;;2.28;;
33453;SDS011;39400;49.744;7.012;2022-11-15T17:29:48;4.78;;;2.85;;
33453;SDS011;39400;49.744;7.012;2022-11-15T17:32:36;3.90;;;1.65;;
33453;SDS011;39400;49.744;7.012;2022-11-15T17:35:20;4.97;;;2.65;;
33453;SDS011;39400;49.744;7.012;2022-11-15T17:38:03;8.57;;;4.07;;
33453;SDS011;39400;49.744;7.012;2022-11-15T17:40:48;9.70;;;5.18;;
33453;SDS011;39400;49.744;7.012;2022-11-15T17:43:32;8.88;;;6.22;;
33453;SDS011;39400;49.744;7.012;2022-11-15T17:46:19;7.30;;;5.07;;
33453;SDS011;39400;49.744;7.012;2022-11-15T17:49:03;10.38;;;5.38;;
33453;SDS011;39400;49.744;7.012;2022-11-15T17:51:47;9.45;;;5.68;;
33453;SDS011;39400;49.744;7.012;2022-11-15T17:54:31;11.43;;;5.80;;
33453;SDS011;39400;49.744;7.012;2022-11-15T17:57:15;20.92;;;12.15;;
33453;SDS011;39400;49.744;7.012;2022-11-15T17:59:59;10.18;;;6.28;;
33453;SDS011;39400;49.744;7.012;2022-11-15T18:02:43;14.20;;;7.18;;
33453;SDS011;39400;49.744;7.012;2022-11-15T18:05:27;8.13;;;4.93;;
33453;SDS011;39400;49.744;7.012;2022-11-15T18:08:11;10.38;;;3.25;;
33453;SDS011;39400;49.744;7.012;2022-11-15T18:14:13;10.05;;;4.88;;
33453;SDS011;39400;49.744;7.012;2022-11-15T18:16:58;6.03;;;3.70;;
33453;SDS011;39400;49.744;7.012;2022-11-15T18:19:41;5.80;;;3.67;;
33453;SDS011;39400;49.744;7.012;2022-11-15T18:22:25;5.85;;;3.13;;
33453;SDS011;39400;49.744;7.012;2022-11-15T18:25:10;14.00;;;6.38;;
33453;SDS011;39400;49.744;7.012;2022-11-15T18:27:54;6.80;;;4.50;;
33453;SDS011;39400;49.744;7.012;2022-11-15T18:30:38;10.80;;;4.25;;
33453;SDS011;39400;49.744;7.012;2022-11-15T18:33:22;5.00;;;3.15;;
33453;SDS011;39400;49.744;7.012;2022-11-15T18:36:06;8.55;;;3.83;;
33453;SDS011;39400;49.744;7.012;2022-11-15T18:38:59;7.90;;;3.78;;
33453;SDS011;39400;49.744;7.012;2022-11-15T18:41:45;6.63;;;3.55;;
33453;SDS011;39400;49.744;7.012;2022-11-15T18:44:29;6.10;;;3.22;;
33453;SDS011;39400;49.744;7.012;2022-11-15T18:47:13;8.65;;;4.40;;
33453;SDS011;39400;49.744;7.012;2022-11-15T18:49:57;4.40;;;2.50;;
33453;SDS011;39400;49.744;7.012;2022-11-15T18:52:41;4.13;;;2.40;;
33453;SDS011;39400;49.744;7.012;2022-11-15T18:55:25;3.67;;;2.55;;
33453;SDS011;39400;49.744;7.012;2022-11-15T18:58:09;6.57;;;4.05;;
33453;SDS011;39400;49.744;7.012;2022-11-15T19:00:58;5.55;;;3.47;;
33453;SDS011;39400;49.744;7.012;2022-11-15T19:03:50;5.88;;;4.40;;
33453;SDS011;39400;49.744;7.012;2022-11-15T19:06:40;6.55;;;4.60;;
33453;SDS011;39400;49.744;7.012;2022-11-15T19:09:26;9.98;;;5.63;;
33453;SDS011;39400;49.744;7.012;2022-11-15T19:12:10;10.93;;;7.13;;
33453;SDS011;39400;49.744;7.012;2022-11-15T19:14:54;8.73;;;5.38;;
33453;SDS011;39400;49.744;7.012;2022-11-15T19:17:38;9.70;;;5.53;;
33453;SDS011;39400;49.744;7.012;2022-11-15T19:20:22;9.95;;;6.00;;
33453;SDS011;39400;49.744;7.012;2022-11-15T19:23:06;5.25;;;3.85;;
33453;SDS011;39400;49.744;7.012;2022-11-15T19:25:53;12.50;;;4.32;;